createdAt,value
2018-11-12T00:00:39.534Z,16.65
2018-11-12T00:03:07.758Z,17.27
2018-11-12T00:05:35.967Z,14.78
2018-11-12T00:08:04.177Z,16.85
2018-11-12T00:10:32.416Z,15.25
2018-11-12T00:13:00.727Z,16.60
2018-11-12T00:15:28.987Z,15.05
2018-11-12T00:17:57.222Z,16.93
2018-11-12T00:20:25.438Z,16.35
2018-11-12T00:22:53.718Z,33.58
2018-11-12T00:25:21.986Z,34.80
2018-11-12T00:27:50.194Z,17.55
2018-11-12T00:30:19.442Z,16.23
2018-11-12T00:32:48.296Z,16.30
2018-11-12T00:35:16.530Z,14.75
2018-11-12T00:37:45.478Z,15.20
2018-11-12T00:40:15.793Z,15.53
2018-11-12T00:42:44.473Z,14.20
2018-11-12T00:45:12.955Z,16.17
2018-11-12T00:47:41.314Z,15.90
2018-11-12T00:50:10.841Z,15.98
2018-11-12T00:52:39.428Z,16.27
2018-11-12T00:55:09.247Z,16.42
2018-11-12T00:57:37.566Z,16.02
2018-11-12T01:00:10.399Z,15.75
2018-11-12T01:02:39.507Z,16.62
2018-11-12T01:05:07.826Z,15.53
2018-11-12T01:07:36.053Z,14.40
2018-11-12T01:10:05.966Z,15.25
2018-11-12T01:12:34.236Z,16.05
2018-11-12T01:15:02.469Z,15.83
2018-11-12T01:17:30.795Z,15.28
2018-11-12T01:19:59.011Z,15.18
2018-11-12T01:22:27.243Z,15.60
2018-11-12T01:24:55.480Z,15.23
2018-11-12T01:27:23.688Z,17.23
2018-11-12T01:29:51.918Z,19.00
2018-11-12T01:32:20.138Z,18.80
2018-11-12T01:34:48.365Z,18.07
2018-11-12T01:37:16.593Z,15.50
2018-11-12T01:39:44.839Z,17.05
2018-11-12T01:42:13.160Z,16.90
2018-11-12T01:44:41.362Z,16.23
2018-11-12T01:47:09.596Z,15.35
2018-11-12T01:49:37.826Z,15.32
2018-11-12T01:52:06.383Z,15.05
2018-11-12T01:54:34.666Z,15.78
2018-11-12T01:57:02.904Z,16.73
2018-11-12T01:59:31.175Z,16.37
2018-11-12T02:01:59.456Z,16.02
2018-11-12T02:04:27.689Z,15.28
2018-11-12T02:06:55.913Z,17.92
2018-11-12T02:09:24.170Z,15.40
2018-11-12T02:11:52.389Z,15.13
2018-11-12T02:14:20.671Z,14.53
2018-11-12T02:16:48.867Z,14.63
2018-11-12T02:19:17.115Z,15.38
2018-11-12T02:21:45.306Z,12.80
2018-11-12T02:24:13.750Z,12.23
2018-11-12T02:26:41.953Z,14.18
2018-11-12T02:29:10.205Z,12.88
2018-11-12T02:31:38.390Z,12.90
2018-11-12T02:34:06.598Z,14.70
2018-11-12T02:36:34.809Z,14.55
2018-11-12T02:39:03.138Z,12.98
2018-11-12T02:41:31.358Z,14.13
2018-11-12T02:43:59.585Z,13.48
2018-11-12T02:46:27.812Z,13.48
2018-11-12T02:48:56.019Z,11.63
2018-11-12T02:51:24.321Z,11.83
2018-11-12T02:53:52.490Z,13.28
2018-11-12T02:56:20.724Z,10.60
2018-11-12T02:58:48.915Z,10.60
2018-11-12T03:01:21.793Z,11.18
2018-11-12T03:03:50.432Z,11.33
2018-11-12T03:06:18.663Z,10.82
2018-11-12T03:08:46.867Z,10.75
2018-11-12T03:11:15.127Z,11.78
2018-11-12T03:13:43.350Z,10.15
2018-11-12T03:16:11.812Z,10.53
2018-11-12T03:18:40.015Z,10.70
2018-11-12T03:21:08.214Z,10.18
2018-11-12T03:23:36.642Z,10.65
2018-11-12T03:26:04.995Z,10.80
2018-11-12T03:28:33.269Z,11.78
2018-11-12T03:31:01.834Z,11.15
2018-11-12T03:33:30.027Z,10.50
2018-11-12T03:35:58.240Z,9.68
2018-11-12T03:38:26.481Z,10.65
2018-11-12T03:40:54.703Z,13.38
2018-11-12T03:43:22.917Z,10.82
2018-11-12T03:45:51.142Z,11.57
2018-11-12T03:48:19.360Z,11.35
2018-11-12T03:50:47.748Z,10.50
2018-11-12T03:53:15.994Z,10.55
2018-11-12T03:55:44.223Z,12.20
2018-11-12T03:58:12.435Z,11.38
2018-11-12T04:00:40.646Z,11.18
2018-11-12T04:03:08.859Z,9.73
2018-11-12T04:05:37.091Z,11.97
2018-11-12T04:08:05.375Z,10.80
2018-11-12T04:10:33.671Z,11.48
2018-11-12T04:13:01.991Z,11.38
2018-11-12T04:15:30.256Z,11.00
2018-11-12T04:17:58.478Z,10.75
2018-11-12T04:20:26.755Z,10.75
2018-11-12T04:23:01.795Z,9.00
2018-11-12T04:25:30.113Z,8.53
2018-11-12T04:27:58.346Z,10.23
2018-11-12T04:30:26.569Z,8.95
2018-11-12T04:32:54.815Z,9.55
2018-11-12T04:35:23.052Z,9.40
2018-11-12T04:37:51.343Z,8.68
2018-11-12T04:40:19.818Z,9.60
2018-11-12T04:42:48.675Z,9.50
2018-11-12T04:45:18.957Z,9.98
2018-11-12T04:47:48.020Z,10.58
2018-11-12T04:50:18.259Z,9.00
2018-11-12T04:52:46.905Z,9.03
2018-11-12T04:55:16.452Z,9.43
2018-11-12T04:57:45.243Z,9.53
2018-11-12T05:00:16.522Z,9.10
2018-11-12T05:02:44.741Z,9.78
2018-11-12T05:05:14.160Z,9.43
2018-11-12T05:07:42.976Z,9.88
2018-11-12T05:10:13.173Z,8.83
2018-11-12T05:12:42.064Z,9.93
2018-11-12T05:15:12.178Z,8.85
2018-11-12T05:17:40.510Z,9.58
2018-11-12T05:20:12.339Z,9.63
2018-11-12T05:22:41.019Z,9.00
2018-11-12T05:25:09.726Z,9.20
2018-11-12T05:27:38.002Z,8.80
2018-11-12T05:30:13.101Z,8.45
2018-11-12T05:32:41.413Z,8.95
2018-11-12T05:35:09.704Z,9.65
2018-11-12T05:37:38.063Z,9.23
2018-11-12T05:40:08.500Z,9.10
2018-11-12T05:42:36.846Z,8.73
2018-11-12T05:45:05.842Z,9.98
2018-11-12T05:47:34.121Z,9.03
2018-11-12T05:50:02.423Z,9.70
2018-11-12T05:52:30.798Z,9.13
2018-11-12T05:54:59.441Z,8.25
2018-11-12T05:57:27.675Z,8.50
2018-11-12T05:59:55.935Z,8.53
2018-11-12T06:02:24.283Z,8.23
2018-11-12T06:04:52.742Z,8.85
2018-11-12T06:07:20.967Z,8.93
2018-11-12T06:09:49.304Z,9.28
2018-11-12T06:12:17.619Z,9.08
2018-11-12T06:14:45.873Z,9.15
2018-11-12T06:17:14.174Z,9.83
2018-11-12T06:19:42.450Z,10.23
2018-11-12T06:22:10.806Z,10.78
2018-11-12T06:24:39.126Z,11.95
2018-11-12T06:27:07.387Z,10.25
2018-11-12T06:29:35.692Z,10.80
2018-11-12T06:32:04.139Z,9.75
2018-11-12T06:34:32.495Z,9.78
2018-11-12T06:37:00.778Z,10.32
2018-11-12T06:39:29.065Z,9.33
2018-11-12T06:41:57.449Z,8.80
2018-11-12T06:44:25.821Z,8.70
2018-11-12T06:46:54.209Z,9.33
2018-11-12T06:49:22.562Z,9.40
2018-11-12T06:51:50.855Z,8.73
2018-11-12T06:54:19.128Z,8.60
2018-11-12T06:56:47.518Z,9.15
2018-11-12T06:59:15.798Z,9.43
2018-11-12T07:01:44.094Z,9.43
2018-11-12T07:04:12.365Z,9.95
2018-11-12T07:06:40.731Z,10.35
2018-11-12T07:09:10.997Z,9.75
2018-11-12T07:11:39.226Z,10.10
2018-11-12T07:14:07.629Z,10.38
2018-11-12T07:16:36.252Z,10.60
2018-11-12T07:19:04.605Z,10.30
2018-11-12T07:21:32.817Z,9.83
2018-11-12T07:24:01.090Z,9.40
2018-11-12T07:26:29.353Z,8.98
2018-11-12T07:28:57.630Z,10.08
2018-11-12T07:31:26.048Z,9.00
2018-11-12T07:33:54.227Z,9.05
2018-11-12T07:36:22.499Z,8.58
2018-11-12T07:38:50.733Z,9.23
2018-11-12T07:41:18.951Z,8.35
2018-11-12T07:43:47.184Z,8.15
2018-11-12T07:46:15.497Z,8.35
2018-11-12T07:48:43.788Z,8.28
2018-11-12T07:51:12.029Z,8.85
2018-11-12T07:53:40.250Z,7.10
2018-11-12T07:56:08.492Z,8.45
2018-11-12T07:58:38.996Z,7.47
2018-11-12T08:01:10.138Z,7.65
2018-11-12T08:03:38.507Z,7.70
2018-11-12T08:06:06.658Z,7.55
2018-11-12T08:08:34.929Z,7.97
2018-11-12T08:11:03.354Z,7.83
2018-11-12T08:13:31.624Z,8.00
2018-11-12T08:15:59.940Z,8.48
2018-11-12T08:18:28.236Z,8.15
2018-11-12T08:20:56.552Z,8.45
2018-11-12T08:23:24.840Z,8.85
2018-11-12T08:25:53.131Z,9.80
2018-11-12T08:28:21.396Z,9.15
2018-11-12T08:30:49.662Z,9.33
2018-11-12T08:33:17.932Z,8.20
2018-11-12T08:35:46.246Z,8.98
2018-11-12T08:38:14.523Z,8.25
2018-11-12T08:40:42.919Z,7.90
2018-11-12T08:43:11.081Z,7.50
2018-11-12T08:45:39.328Z,8.48
2018-11-12T08:48:07.626Z,9.15
2018-11-12T08:50:35.902Z,10.28
2018-11-12T08:53:04.358Z,9.63
2018-11-12T08:55:32.681Z,9.68
2018-11-12T08:58:02.474Z,9.10
2018-11-12T09:00:30.869Z,8.68
2018-11-12T09:02:59.254Z,10.38
2018-11-12T09:05:28.841Z,9.60
2018-11-12T09:07:58.317Z,8.88
2018-11-12T09:10:30.906Z,10.18
2018-11-12T09:12:59.114Z,9.55
2018-11-12T09:15:27.395Z,8.60
2018-11-12T09:17:55.562Z,9.80
2018-11-12T09:20:25.039Z,10.85
2018-11-12T09:22:53.700Z,9.63
2018-11-12T09:25:22.946Z,9.20
2018-11-12T09:27:51.236Z,8.55
2018-11-12T09:30:22.768Z,8.10
2018-11-12T09:32:51.108Z,8.68
2018-11-12T09:35:22.496Z,8.20
2018-11-12T09:37:51.952Z,8.80
2018-11-12T09:40:24.634Z,8.05
2018-11-12T09:42:52.927Z,8.38
2018-11-12T09:45:21.175Z,7.45
2018-11-12T09:47:49.477Z,7.78
2018-11-12T09:50:18.978Z,7.80
2018-11-12T09:52:48.372Z,8.00
2018-11-12T09:55:17.652Z,7.20
2018-11-12T09:57:47.353Z,7.73
2018-11-12T10:00:16.763Z,7.77
2018-11-12T10:02:46.772Z,8.00
2018-11-12T10:05:15.706Z,8.20
2018-11-12T10:07:44.754Z,7.50
2018-11-12T10:10:20.522Z,9.50
2018-11-12T10:12:49.415Z,9.63
2018-11-12T10:15:18.825Z,8.90
2018-11-12T10:17:46.606Z,7.70
2018-11-12T10:20:11.919Z,8.20
2018-11-12T10:22:40.380Z,8.97
2018-11-12T10:25:08.750Z,7.87
2018-11-12T10:27:37.082Z,8.83
2018-11-12T10:30:06.224Z,9.40
2018-11-12T10:32:34.556Z,8.10
2018-11-12T10:35:02.830Z,8.80
2018-11-12T10:37:31.096Z,9.30
2018-11-12T10:39:59.384Z,8.83
2018-11-12T10:42:27.869Z,8.50
2018-11-12T10:44:56.129Z,7.80
2018-11-12T10:47:24.439Z,9.03
2018-11-12T10:49:53.574Z,9.37
2018-11-12T10:52:21.858Z,8.40
2018-11-12T10:55:04.036Z,9.05
2018-11-12T10:57:18.565Z,8.83
2018-11-12T10:59:46.882Z,10.87
2018-11-12T11:03:18.038Z,9.37
2018-11-12T11:05:47.956Z,9.30
2018-11-12T11:08:16.615Z,8.97
2018-11-12T11:10:44.934Z,11.17
2018-11-12T11:13:13.153Z,8.80
2018-11-12T11:15:41.466Z,9.10
2018-11-12T11:18:09.638Z,8.68
2018-11-12T11:20:37.884Z,9.73
2018-11-12T11:23:06.151Z,8.47
2018-11-12T11:25:34.519Z,8.90
2018-11-12T11:28:02.726Z,9.80
2018-11-12T11:30:30.962Z,8.55
2018-11-12T11:32:59.316Z,8.13
2018-11-12T11:35:27.612Z,9.80
2018-11-12T11:37:55.948Z,8.23
2018-11-12T11:40:25.532Z,9.60
2018-11-12T11:42:53.722Z,8.27
2018-11-12T11:45:22.382Z,9.00
2018-11-12T11:47:51.561Z,9.00
2018-11-12T11:50:22.138Z,8.47
2018-11-12T11:52:50.277Z,8.60
2018-11-12T11:55:19.825Z,9.40
2018-11-12T11:57:48.530Z,9.37
2018-11-12T12:00:22.912Z,8.53
2018-11-12T12:02:52.183Z,9.43
2018-11-12T12:05:21.237Z,8.77
2018-11-12T12:07:49.869Z,8.27
2018-11-12T12:10:18.245Z,9.97
2018-11-12T12:12:47.615Z,9.50
2018-11-12T12:15:17.383Z,9.57
2018-11-12T12:17:45.793Z,9.60
2018-11-12T12:20:29.571Z,9.17
2018-11-12T12:22:58.029Z,8.13
2018-11-12T12:25:26.416Z,7.93
2018-11-12T12:27:54.606Z,11.03
2018-11-12T12:30:24.197Z,8.97
2018-11-12T12:32:53.627Z,10.40
2018-11-12T12:35:21.874Z,8.43
2018-11-12T12:37:50.140Z,8.90
2018-11-12T12:40:19.925Z,9.57
2018-11-12T12:42:48.347Z,8.60
2018-11-12T12:45:18.007Z,8.90
2018-11-12T12:47:46.728Z,9.33
2018-11-12T12:50:15.919Z,9.27
2018-11-12T12:52:44.198Z,8.80
2018-11-12T12:55:13.657Z,9.37
2018-11-12T12:57:42.810Z,9.17
2018-11-12T13:00:13.718Z,10.90
2018-11-12T13:02:42.077Z,11.33
2018-11-12T13:05:10.386Z,10.73
2018-11-12T13:07:39.038Z,10.40
2018-11-12T13:10:08.699Z,11.27
2018-11-12T13:12:37.017Z,12.17
2018-11-12T13:15:07.177Z,11.67
2018-11-12T13:17:35.689Z,12.97
2018-11-12T13:20:03.961Z,13.57
2018-11-12T13:22:32.237Z,13.47
2018-11-12T13:25:00.502Z,13.43
2018-11-12T13:27:28.824Z,11.80
2018-11-12T13:29:57.320Z,11.90
2018-11-12T13:32:25.558Z,11.60
2018-11-12T13:34:53.818Z,12.40
2018-11-12T13:37:22.063Z,10.73
2018-11-12T13:39:50.311Z,12.67
2018-11-12T13:42:19.231Z,14.07
2018-11-12T13:44:47.485Z,13.07
2018-11-12T13:47:15.731Z,12.93
2018-11-12T13:49:44.005Z,13.60
2018-11-12T13:52:12.343Z,12.50
2018-11-12T13:54:40.618Z,13.00
2018-11-12T13:57:08.896Z,13.67
2018-11-12T13:59:37.210Z,13.50
2018-11-12T14:02:05.532Z,14.60
2018-11-12T14:04:33.766Z,15.95
2018-11-12T14:07:02.111Z,15.57
2018-11-12T14:09:30.407Z,17.70
2018-11-12T14:11:58.739Z,15.05
2018-11-12T14:14:26.959Z,14.77
2018-11-12T14:16:55.451Z,13.87
2018-11-12T14:19:23.712Z,14.90
2018-11-12T14:21:52.005Z,13.30
2018-11-12T14:24:20.354Z,14.53
2018-11-12T14:26:48.638Z,14.93
2018-11-12T14:29:16.923Z,16.43
2018-11-12T14:31:45.189Z,14.23
2018-11-12T14:34:13.447Z,14.50
2018-11-12T14:36:42.070Z,14.80
2018-11-12T14:39:10.810Z,18.43
2018-11-12T14:41:39.369Z,13.90
2018-11-12T14:44:07.747Z,13.30
2018-11-12T14:46:36.095Z,14.00
2018-11-12T14:49:04.439Z,14.40
2018-11-12T14:51:32.780Z,15.07
2018-11-12T14:54:01.152Z,14.57
2018-11-12T14:56:29.394Z,14.27
2018-11-12T14:58:57.839Z,13.65
2018-11-12T15:01:26.251Z,14.87
2018-11-12T15:03:54.495Z,14.50
2018-11-12T15:06:22.741Z,15.53
2018-11-12T15:08:51.072Z,15.27
2018-11-12T15:11:19.294Z,14.63
2018-11-12T15:13:47.599Z,18.60
2018-11-12T15:16:15.887Z,16.75
2018-11-12T15:18:44.118Z,15.00
2018-11-12T15:21:12.450Z,15.40
2018-11-12T15:23:40.730Z,14.00
2018-11-12T15:26:09.001Z,16.60
2018-11-12T15:28:37.332Z,14.67
2018-11-12T15:31:05.735Z,15.93
2018-11-12T15:33:34.050Z,15.40
2018-11-12T15:36:02.442Z,15.23
2018-11-12T15:38:30.678Z,16.03
2018-11-12T15:40:59.146Z,16.60
2018-11-12T15:43:27.463Z,17.23
2018-11-12T15:45:55.820Z,15.18
2018-11-12T15:48:24.131Z,16.45
2018-11-12T15:50:52.452Z,15.68
2018-11-12T15:53:20.747Z,16.45
2018-11-12T15:55:49.038Z,17.40
2018-11-12T15:58:17.501Z,17.90
2018-11-12T16:00:45.694Z,16.40
2018-11-12T16:03:14.002Z,15.95
2018-11-12T16:05:42.386Z,16.82
2018-11-12T16:08:10.711Z,17.32
2018-11-12T16:10:39.055Z,16.12
2018-11-12T16:13:07.286Z,17.17
2018-11-12T16:15:35.564Z,16.25
2018-11-12T16:18:03.831Z,17.02
2018-11-12T16:20:32.200Z,17.85
2018-11-12T16:23:01.220Z,17.98
2018-11-12T16:25:29.842Z,18.23
2018-11-12T16:27:58.216Z,19.60
2018-11-12T16:30:26.453Z,18.13
2018-11-12T16:32:54.696Z,19.70
2018-11-12T16:35:23.922Z,18.10
2018-11-12T16:37:53.244Z,20.80
2018-11-12T16:40:22.039Z,19.83
2018-11-12T16:42:50.833Z,21.10
2018-11-12T16:45:19.113Z,21.68
2018-11-12T16:47:47.491Z,22.45
2018-11-12T16:50:16.382Z,22.32
2018-11-12T16:52:44.741Z,22.95
2018-11-12T16:55:17.101Z,20.75
2018-11-12T16:57:45.646Z,20.85
2018-11-12T17:00:14.990Z,22.02
2018-11-12T17:02:43.758Z,22.22
2018-11-12T17:05:13.322Z,22.70
2018-11-12T17:07:41.639Z,20.82
2018-11-12T17:10:12.200Z,23.67
2018-11-12T17:12:41.421Z,23.30
2018-11-12T17:15:10.438Z,25.65
2018-11-12T17:17:38.935Z,24.12
2018-11-12T17:20:08.170Z,24.72
2018-11-12T17:22:36.758Z,24.20
2018-11-12T17:25:05.980Z,21.62
2018-11-12T17:27:34.230Z,21.23
2018-11-12T17:30:02.511Z,22.58
2018-11-12T17:32:31.159Z,22.58
2018-11-12T17:34:59.421Z,21.10
2018-11-12T17:37:27.685Z,21.40
2018-11-12T17:39:55.916Z,23.47
2018-11-12T17:42:24.191Z,21.68
2018-11-12T17:44:52.456Z,22.15
2018-11-12T17:47:21.198Z,22.85
2018-11-12T17:49:49.574Z,22.60
2018-11-12T17:52:17.816Z,24.32
2018-11-12T17:54:46.537Z,23.05
2018-11-12T17:57:14.810Z,23.80
2018-11-12T17:59:43.061Z,24.27
2018-11-12T18:02:11.334Z,24.95
2018-11-12T18:04:39.647Z,24.90
2018-11-12T18:07:08.004Z,23.45
2018-11-12T18:09:36.206Z,23.00
2018-11-12T18:12:05.238Z,22.77
2018-11-12T18:14:33.474Z,23.90
2018-11-12T18:17:01.714Z,22.30
2018-11-12T18:19:29.934Z,23.80
2018-11-12T18:21:58.166Z,26.10
2018-11-12T18:24:26.467Z,23.55
2018-11-12T18:26:54.705Z,25.45
2018-11-12T18:29:22.946Z,24.43
2018-11-12T18:31:51.302Z,24.77
2018-11-12T18:34:19.396Z,25.88
2018-11-12T18:36:47.671Z,24.47
2018-11-12T18:39:15.878Z,25.60
2018-11-12T18:41:44.149Z,28.85
2018-11-12T18:44:13.246Z,29.72
2018-11-12T18:46:41.509Z,29.75
2018-11-12T18:49:09.767Z,27.15
2018-11-12T18:51:38.158Z,27.60
2018-11-12T18:54:06.500Z,26.68
2018-11-12T18:56:34.799Z,26.33
2018-11-12T18:59:03.086Z,26.37
2018-11-12T19:01:31.362Z,26.93
2018-11-12T19:04:00.100Z,24.50
2018-11-12T19:06:28.694Z,23.60
2018-11-12T19:08:57.037Z,23.92
2018-11-12T19:11:26.118Z,23.38
2018-11-12T19:13:54.436Z,23.42
2018-11-12T19:16:22.817Z,22.85
2018-11-12T19:18:51.055Z,23.32
2018-11-12T19:21:19.350Z,24.47
2018-11-12T19:23:47.597Z,23.40
2018-11-12T19:26:15.882Z,23.85
2018-11-12T19:28:44.163Z,23.38
2018-11-12T19:31:12.535Z,27.82
2018-11-12T19:33:40.800Z,27.30
2018-11-12T19:36:09.066Z,28.12
2018-11-12T19:38:37.318Z,26.48
2018-11-12T19:41:06.323Z,23.70
2018-11-12T19:43:34.618Z,24.80
2018-11-12T19:46:03.001Z,27.27
2018-11-12T19:48:31.327Z,28.85
2018-11-12T19:50:59.694Z,31.37
2018-11-12T19:53:27.940Z,29.48
2018-11-12T19:55:56.224Z,32.00
2018-11-12T19:58:24.496Z,29.12
2018-11-12T20:00:52.952Z,26.97
2018-11-12T20:03:21.290Z,27.73
2018-11-12T20:05:49.632Z,29.02
2018-11-12T20:08:18.133Z,26.12
2018-11-12T20:10:46.352Z,25.60
2018-11-12T20:13:14.615Z,26.23
2018-11-12T20:15:42.958Z,27.15
2018-11-12T20:18:11.178Z,24.50
2018-11-12T20:20:39.499Z,23.57
2018-11-12T20:23:07.799Z,24.43
2018-11-12T20:25:36.305Z,21.50
2018-11-12T20:28:04.609Z,23.80
2018-11-12T20:30:35.145Z,20.17
2018-11-12T20:33:03.694Z,22.02
2018-11-12T20:35:32.038Z,21.65
2018-11-12T20:38:00.322Z,20.40
2018-11-12T20:40:28.540Z,20.80
2018-11-12T20:42:56.864Z,21.35
2018-11-12T20:45:25.543Z,22.22
2018-11-12T20:47:55.073Z,23.25
2018-11-12T20:50:23.273Z,22.77
2018-11-12T20:52:51.564Z,21.23
2018-11-12T20:55:19.936Z,23.25
2018-11-12T20:57:48.203Z,22.00
2018-11-12T21:00:19.310Z,22.62
2018-11-12T21:02:48.930Z,22.20
2018-11-12T21:05:17.599Z,22.77
2018-11-12T21:07:45.807Z,23.92
2018-11-12T21:10:15.583Z,22.95
2018-11-12T21:12:44.196Z,23.18
2018-11-12T21:15:13.567Z,22.93
2018-11-12T21:17:41.938Z,21.50
2018-11-12T21:20:13.422Z,24.02
2018-11-12T21:22:42.038Z,22.55
2018-11-12T21:25:11.595Z,22.00
2018-11-12T21:27:40.183Z,22.85
2018-11-12T21:30:11.838Z,22.58
2018-11-12T21:32:40.157Z,25.80
2018-11-12T21:35:08.515Z,22.32
2018-11-12T21:37:37.310Z,23.35
2018-11-12T21:40:09.167Z,23.05
2018-11-12T21:42:37.450Z,22.30
2018-11-12T21:45:07.201Z,23.20
2018-11-12T21:47:35.837Z,21.93
2018-11-12T21:50:04.682Z,22.50
2018-11-12T21:52:32.891Z,21.05
2018-11-12T21:55:01.125Z,21.73
2018-11-12T21:57:29.415Z,22.98
2018-11-12T21:59:57.771Z,18.50
2018-11-12T22:02:26.071Z,20.32
2018-11-12T22:04:54.285Z,19.92
2018-11-12T22:07:22.551Z,21.62
2018-11-12T22:09:50.825Z,20.00
2018-11-12T22:12:19.102Z,17.95
2018-11-12T22:14:47.481Z,19.52
2018-11-12T22:17:15.732Z,18.98
2018-11-12T22:19:44.175Z,17.90
2018-11-12T22:22:12.214Z,18.02
2018-11-12T22:24:40.908Z,20.20
2018-11-12T22:27:09.140Z,26.82
2018-11-12T22:29:37.394Z,28.83
2018-11-12T22:32:05.692Z,32.05
2018-11-12T22:34:33.974Z,28.15
2018-11-12T22:37:02.234Z,23.32
2018-11-12T22:39:30.493Z,19.42
2018-11-12T22:41:58.701Z,17.85
2018-11-12T22:44:26.991Z,17.23
2018-11-12T22:46:55.240Z,16.23
2018-11-12T22:49:23.511Z,15.68
2018-11-12T22:51:51.721Z,14.93
2018-11-12T22:54:19.943Z,15.13
2018-11-12T22:56:48.247Z,14.10
2018-11-12T22:59:16.493Z,15.60
2018-11-12T23:01:44.706Z,16.12
2018-11-12T23:04:12.971Z,14.70
2018-11-12T23:06:41.270Z,13.98
2018-11-12T23:09:16.769Z,14.90
2018-11-12T23:11:45.183Z,15.40
2018-11-12T23:14:14.455Z,15.13
2018-11-12T23:16:43.344Z,16.37
2018-11-12T23:19:11.605Z,15.18
2018-11-12T23:21:40.779Z,16.17
2018-11-12T23:24:09.060Z,16.10
2018-11-12T23:26:37.825Z,14.03
2018-11-12T23:29:06.098Z,14.60
2018-11-12T23:31:34.360Z,14.50
2018-11-12T23:34:02.643Z,13.18
2018-11-12T23:36:30.890Z,14.20
2018-11-12T23:38:59.132Z,14.50
2018-11-12T23:41:27.375Z,14.15
2018-11-12T23:43:55.615Z,17.73
2018-11-12T23:46:23.895Z,23.50
2018-11-12T23:48:52.122Z,19.35
2018-11-12T23:51:20.350Z,14.68
2018-11-12T23:53:48.576Z,16.73
2018-11-12T23:56:16.811Z,14.85
2018-11-12T23:58:45.138Z,15.55
